sensor_id;sensor_type;location;lat;lon;timestamp;pressure;altitude;pressure_sealevel;temperature
10058;BMP180;5068;51.286;7.518;2023-09-19T00:01:27;98632.00;;;19.20
10058;BMP180;5068;51.286;7.518;2023-09-19T00:02:59;98627.00;;;19.20
10058;BMP180;5068;51.286;7.518;2023-09-19T00:04:33;98640.00;;;19.10
10058;BMP180;5068;51.286;7.518;2023-09-19T00:06:06;98637.00;;;19.10
10058;BMP180;5068;51.286;7.518;2023-09-19T00:07:40;98639.00;;;19.10
10058;BMP180;5068;51.286;7.518;2023-09-19T00:09:12;98631.00;;;19.10
10058;BMP180;5068;51.286;7.518;2023-09-19T00:10:46;98626.00;;;19.10
10058;BMP180;5068;51.286;7.518;2023-09-19T00:12:20;98639.00;;;19.10
10058;BMP180;5068;51.286;7.518;2023-09-19T00:13:54;98639.00;;;19.00
10058;BMP180;5068;51.286;7.518;2023-09-19T00:15:29;98640.00;;;19.00
10058;BMP180;5068;51.286;7.518;2023-09-19T00:17:02;98644.00;;;19.10
10058;BMP180;5068;51.286;7.518;2023-09-19T00:18:40;98641.00;;;19.00
10058;BMP180;5068;51.286;7.518;2023-09-19T00:20:12;98640.00;;;19.00
10058;BMP180;5068;51.286;7.518;2023-09-19T00:21:47;98651.00;;;19.00
10058;BMP180;5068;51.286;7.518;2023-09-19T00:23:20;98647.00;;;19.00
10058;BMP180;5068;51.286;7.518;2023-09-19T00:24:54;98647.00;;;19.00
10058;BMP180;5068;51.286;7.518;2023-09-19T00:26:27;98661.00;;;19.00
10058;BMP180;5068;51.286;7.518;2023-09-19T00:28:03;98659.00;;;19.00
10058;BMP180;5068;51.286;7.518;2023-09-19T00:29:37;98656.00;;;19.00
10058;BMP180;5068;51.286;7.518;2023-09-19T00:31:11;98657.00;;;19.00
10058;BMP180;5068;51.286;7.518;2023-09-19T00:32:46;98661.00;;;18.90
10058;BMP180;5068;51.286;7.518;2023-09-19T00:34:21;98671.00;;;19.00
10058;BMP180;5068;51.286;7.518;2023-09-19T00:35:54;98659.00;;;18.90
10058;BMP180;5068;51.286;7.518;2023-09-19T00:37:27;98669.00;;;18.90
10058;BMP180;5068;51.286;7.518;2023-09-19T00:39:00;98662.00;;;18.90
10058;BMP180;5068;51.286;7.518;2023-09-19T00:40:34;98664.00;;;18.90
10058;BMP180;5068;51.286;7.518;2023-09-19T00:42:09;98660.00;;;18.90
10058;BMP180;5068;51.286;7.518;2023-09-19T00:43:42;98667.00;;;18.90
10058;BMP180;5068;51.286;7.518;2023-09-19T00:45:17;98667.00;;;18.90
10058;BMP180;5068;51.286;7.518;2023-09-19T00:46:50;98665.00;;;18.90
10058;BMP180;5068;51.286;7.518;2023-09-19T00:48:26;98675.00;;;19.00
10058;BMP180;5068;51.286;7.518;2023-09-19T00:50:02;98671.00;;;18.90
10058;BMP180;5068;51.286;7.518;2023-09-19T00:51:37;98674.00;;;19.00
10058;BMP180;5068;51.286;7.518;2023-09-19T00:53:15;98672.00;;;18.90
10058;BMP180;5068;51.286;7.518;2023-09-19T00:54:50;98680.00;;;18.90
10058;BMP180;5068;51.286;7.518;2023-09-19T00:56:24;98665.00;;;18.90
10058;BMP180;5068;51.286;7.518;2023-09-19T00:57:57;98679.00;;;18.90
10058;BMP180;5068;51.286;7.518;2023-09-19T00:59:30;98678.00;;;18.80
10058;BMP180;5068;51.286;7.518;2023-09-19T01:01:05;98672.00;;;18.80
10058;BMP180;5068;51.286;7.518;2023-09-19T01:02:42;98687.00;;;18.80
10058;BMP180;5068;51.286;7.518;2023-09-19T01:04:15;98687.00;;;18.80
10058;BMP180;5068;51.286;7.518;2023-09-19T01:05:49;98694.00;;;18.80
10058;BMP180;5068;51.286;7.518;2023-09-19T01:07:23;98692.00;;;18.70
10058;BMP180;5068;51.286;7.518;2023-09-19T01:08:57;98696.00;;;18.70
10058;BMP180;5068;51.286;7.518;2023-09-19T01:10:30;98679.00;;;18.70
10058;BMP180;5068;51.286;7.518;2023-09-19T01:12:07;98702.00;;;18.70
10058;BMP180;5068;51.286;7.518;2023-09-19T01:13:56;98683.00;;;18.70
10058;BMP180;5068;51.286;7.518;2023-09-19T01:15:45;98694.00;;;18.70
10058;BMP180;5068;51.286;7.518;2023-09-19T01:17:27;98686.00;;;18.70
10058;BMP180;5068;51.286;7.518;2023-09-19T01:21:26;98688.00;;;18.70
10058;BMP180;5068;51.286;7.518;2023-09-19T01:23:13;98694.00;;;18.70
10058;BMP180;5068;51.286;7.518;2023-09-19T01:25:38;98693.00;;;18.60
10058;BMP180;5068;51.286;7.518;2023-09-19T01:27:43;98692.00;;;18.60
10058;BMP180;5068;51.286;7.518;2023-09-19T01:29:38;98693.00;;;18.60
10058;BMP180;5068;51.286;7.518;2023-09-19T01:31:14;98692.00;;;18.60
10058;BMP180;5068;51.286;7.518;2023-09-19T01:32:50;98706.00;;;18.60
10058;BMP180;5068;51.286;7.518;2023-09-19T01:34:24;98700.00;;;18.60
10058;BMP180;5068;51.286;7.518;2023-09-19T01:35:58;98700.00;;;18.60
10058;BMP180;5068;51.286;7.518;2023-09-19T01:37:31;98706.00;;;18.60
10058;BMP180;5068;51.286;7.518;2023-09-19T01:39:07;98706.00;;;18.50
10058;BMP180;5068;51.286;7.518;2023-09-19T01:40:47;98704.00;;;18.50
10058;BMP180;5068;51.286;7.518;2023-09-19T01:42:37;98712.00;;;18.50
10058;BMP180;5068;51.286;7.518;2023-09-19T01:44:22;98704.00;;;18.50
10058;BMP180;5068;51.286;7.518;2023-09-19T01:46:07;98709.00;;;18.50
10058;BMP180;5068;51.286;7.518;2023-09-19T01:47:54;98710.00;;;18.50
10058;BMP180;5068;51.286;7.518;2023-09-19T01:49:35;98711.00;;;18.50
10058;BMP180;5068;51.286;7.518;2023-09-19T01:51:14;98712.00;;;18.40
10058;BMP180;5068;51.286;7.518;2023-09-19T01:52:54;98705.00;;;18.50
10058;BMP180;5068;51.286;7.518;2023-09-19T01:54:33;98702.00;;;18.50
10058;BMP180;5068;51.286;7.518;2023-09-19T01:56:12;98707.00;;;18.40
10058;BMP180;5068;51.286;7.518;2023-09-19T01:58:01;98710.00;;;18.40
10058;BMP180;5068;51.286;7.518;2023-09-19T01:59:47;98722.00;;;18.40
10058;BMP180;5068;51.286;7.518;2023-09-19T02:01:24;98719.00;;;18.40
10058;BMP180;5068;51.286;7.518;2023-09-19T02:03:00;98720.00;;;18.40
10058;BMP180;5068;51.286;7.518;2023-09-19T02:04:34;98719.00;;;18.40
10058;BMP180;5068;51.286;7.518;2023-09-19T02:06:07;98721.00;;;18.40
10058;BMP180;5068;51.286;7.518;2023-09-19T02:07:43;98727.00;;;18.40
10058;BMP180;5068;51.286;7.518;2023-09-19T02:09:17;98732.00;;;18.30
10058;BMP180;5068;51.286;7.518;2023-09-19T02:10:49;98733.00;;;18.30
10058;BMP180;5068;51.286;7.518;2023-09-19T02:12:24;98719.00;;;18.30
10058;BMP180;5068;51.286;7.518;2023-09-19T02:13:57;98725.00;;;18.30
10058;BMP180;5068;51.286;7.518;2023-09-19T02:15:31;98724.00;;;18.30
10058;BMP180;5068;51.286;7.518;2023-09-19T02:17:06;98731.00;;;18.30
10058;BMP180;5068;51.286;7.518;2023-09-19T02:18:44;98727.00;;;18.20
10058;BMP180;5068;51.286;7.518;2023-09-19T02:20:18;98729.00;;;18.20
10058;BMP180;5068;51.286;7.518;2023-09-19T02:21:52;98732.00;;;18.20
10058;BMP180;5068;51.286;7.518;2023-09-19T02:23:25;98726.00;;;18.10
10058;BMP180;5068;51.286;7.518;2023-09-19T02:24:58;98733.00;;;18.10
10058;BMP180;5068;51.286;7.518;2023-09-19T02:26:32;98729.00;;;18.10
10058;BMP180;5068;51.286;7.518;2023-09-19T02:28:11;98738.00;;;18.10
10058;BMP180;5068;51.286;7.518;2023-09-19T02:29:44;98733.00;;;18.10
10058;BMP180;5068;51.286;7.518;2023-09-19T02:31:17;98738.00;;;18.10
10058;BMP180;5068;51.286;7.518;2023-09-19T02:32:50;98740.00;;;18.10
10058;BMP180;5068;51.286;7.518;2023-09-19T02:34:25;98740.00;;;18.20
10058;BMP180;5068;51.286;7.518;2023-09-19T02:35:58;98735.00;;;18.20
10058;BMP180;5068;51.286;7.518;2023-09-19T02:37:32;98740.00;;;18.10
10058;BMP180;5068;51.286;7.518;2023-09-19T02:39:05;98748.00;;;18.10
10058;BMP180;5068;51.286;7.518;2023-09-19T02:40:40;98739.00;;;18.10
10058;BMP180;5068;51.286;7.518;2023-09-19T02:42:13;98742.00;;;18.10
10058;BMP180;5068;51.286;7.518;2023-09-19T02:43:47;98742.00;;;18.10
10058;BMP180;5068;51.286;7.518;2023-09-19T02:45:20;98734.00;;;18.10
10058;BMP180;5068;51.286;7.518;2023-09-19T02:46:55;98739.00;;;18.10
10058;BMP180;5068;51.286;7.518;2023-09-19T02:48:29;98741.00;;;18.10
10058;BMP180;5068;51.286;7.518;2023-09-19T02:50:06;98747.00;;;18.10
10058;BMP180;5068;51.286;7.518;2023-09-19T02:51:40;98743.00;;;18.00
10058;BMP180;5068;51.286;7.518;2023-09-19T02:53:13;98746.00;;;18.00
10058;BMP180;5068;51.286;7.518;2023-09-19T02:54:47;98747.00;;;18.00
10058;BMP180;5068;51.286;7.518;2023-09-19T02:56:19;98748.00;;;18.00
10058;BMP180;5068;51.286;7.518;2023-09-19T02:57:53;98758.00;;;18.00
10058;BMP180;5068;51.286;7.518;2023-09-19T02:59:27;98754.00;;;18.00
10058;BMP180;5068;51.286;7.518;2023-09-19T03:01:08;98755.00;;;17.90
10058;BMP180;5068;51.286;7.518;2023-09-19T03:02:41;98760.00;;;17.90
10058;BMP180;5068;51.286;7.518;2023-09-19T03:04:17;98756.00;;;17.90
10058;BMP180;5068;51.286;7.518;2023-09-19T03:05:54;98752.00;;;17.80
10058;BMP180;5068;51.286;7.518;2023-09-19T03:07:28;98762.00;;;17.80
10058;BMP180;5068;51.286;7.518;2023-09-19T03:09:00;98754.00;;;17.80
10058;BMP180;5068;51.286;7.518;2023-09-19T03:10:38;98756.00;;;17.80
10058;BMP180;5068;51.286;7.518;2023-09-19T03:12:10;98766.00;;;17.70
10058;BMP180;5068;51.286;7.518;2023-09-19T03:13:51;98761.00;;;17.70
10058;BMP180;5068;51.286;7.518;2023-09-19T03:15:23;98764.00;;;17.70
10058;BMP180;5068;51.286;7.518;2023-09-19T03:16:57;98782.00;;;17.70
10058;BMP180;5068;51.286;7.518;2023-09-19T03:18:32;98774.00;;;17.70
10058;BMP180;5068;51.286;7.518;2023-09-19T03:20:08;98779.00;;;17.70
10058;BMP180;5068;51.286;7.518;2023-09-19T03:21:43;98783.00;;;17.70
10058;BMP180;5068;51.286;7.518;2023-09-19T03:23:15;98775.00;;;17.70
10058;BMP180;5068;51.286;7.518;2023-09-19T03:24:49;98791.00;;;17.70
10058;BMP180;5068;51.286;7.518;2023-09-19T03:26:21;98787.00;;;17.70
10058;BMP180;5068;51.286;7.518;2023-09-19T03:27:56;98794.00;;;17.70
10058;BMP180;5068;51.286;7.518;2023-09-19T03:29:30;98798.00;;;17.70
10058;BMP180;5068;51.286;7.518;2023-09-19T03:31:07;98794.00;;;17.70
10058;BMP180;5068;51.286;7.518;2023-09-19T03:32:45;98800.00;;;17.70
10058;BMP180;5068;51.286;7.518;2023-09-19T03:34:19;98804.00;;;17.60
10058;BMP180;5068;51.286;7.518;2023-09-19T03:35:53;98798.00;;;17.60
10058;BMP180;5068;51.286;7.518;2023-09-19T03:37:28;98791.00;;;17.60
10058;BMP180;5068;51.286;7.518;2023-09-19T03:39:01;98798.00;;;17.60
10058;BMP180;5068;51.286;7.518;2023-09-19T03:40:37;98788.00;;;17.60
10058;BMP180;5068;51.286;7.518;2023-09-19T03:42:10;98801.00;;;17.60
10058;BMP180;5068;51.286;7.518;2023-09-19T03:43:43;98794.00;;;17.60
10058;BMP180;5068;51.286;7.518;2023-09-19T03:45:16;98799.00;;;17.60
10058;BMP180;5068;51.286;7.518;2023-09-19T03:46:56;98793.00;;;17.60
10058;BMP180;5068;51.286;7.518;2023-09-19T03:48:29;98797.00;;;17.60
10058;BMP180;5068;51.286;7.518;2023-09-19T03:50:04;98791.00;;;17.50
10058;BMP180;5068;51.286;7.518;2023-09-19T03:51:36;98782.00;;;17.50
10058;BMP180;5068;51.286;7.518;2023-09-19T03:53:11;98782.00;;;17.50
10058;BMP180;5068;51.286;7.518;2023-09-19T03:54:44;98796.00;;;17.50
10058;BMP180;5068;51.286;7.518;2023-09-19T03:56:18;98793.00;;;17.50
10058;BMP180;5068;51.286;7.518;2023-09-19T03:57:51;98795.00;;;17.50
10058;BMP180;5068;51.286;7.518;2023-09-19T03:59:25;98798.00;;;17.40
10058;BMP180;5068;51.286;7.518;2023-09-19T04:00:59;98786.00;;;17.40
10058;BMP180;5068;51.286;7.518;2023-09-19T04:02:33;98780.00;;;17.40
10058;BMP180;5068;51.286;7.518;2023-09-19T04:04:06;98781.00;;;17.40
10058;BMP180;5068;51.286;7.518;2023-09-19T04:05:41;98792.00;;;17.40
10058;BMP180;5068;51.286;7.518;2023-09-19T04:07:14;98787.00;;;17.40
10058;BMP180;5068;51.286;7.518;2023-09-19T04:08:48;98791.00;;;17.40
10058;BMP180;5068;51.286;7.518;2023-09-19T04:10:21;98787.00;;;17.40
10058;BMP180;5068;51.286;7.518;2023-09-19T04:11:54;98785.00;;;17.30
10058;BMP180;5068;51.286;7.518;2023-09-19T04:13:26;98791.00;;;17.30
10058;BMP180;5068;51.286;7.518;2023-09-19T04:15:00;98787.00;;;17.30
10058;BMP180;5068;51.286;7.518;2023-09-19T04:16:34;98787.00;;;17.30
10058;BMP180;5068;51.286;7.518;2023-09-19T04:18:08;98791.00;;;17.30
10058;BMP180;5068;51.286;7.518;2023-09-19T04:19:40;98782.00;;;17.30
10058;BMP180;5068;51.286;7.518;2023-09-19T04:21:16;98787.00;;;17.30
10058;BMP180;5068;51.286;7.518;2023-09-19T04:22:50;98784.00;;;17.30
10058;BMP180;5068;51.286;7.518;2023-09-19T04:24:24;98791.00;;;17.30
10058;BMP180;5068;51.286;7.518;2023-09-19T04:25:57;98794.00;;;17.20
10058;BMP180;5068;51.286;7.518;2023-09-19T04:27:29;98785.00;;;17.20
10058;BMP180;5068;51.286;7.518;2023-09-19T04:29:03;98786.00;;;17.20
10058;BMP180;5068;51.286;7.518;2023-09-19T04:30:38;98784.00;;;17.20
10058;BMP180;5068;51.286;7.518;2023-09-19T04:32:12;98793.00;;;17.20
10058;BMP180;5068;51.286;7.518;2023-09-19T04:33:46;98791.00;;;17.20
10058;BMP180;5068;51.286;7.518;2023-09-19T04:35:19;98792.00;;;17.10
10058;BMP180;5068;51.286;7.518;2023-09-19T04:36:52;98794.00;;;17.10
10058;BMP180;5068;51.286;7.518;2023-09-19T04:38:25;98799.00;;;17.10
10058;BMP180;5068;51.286;7.518;2023-09-19T04:40:01;98800.00;;;17.10
10058;BMP180;5068;51.286;7.518;2023-09-19T04:41:36;98800.00;;;17.00
10058;BMP180;5068;51.286;7.518;2023-09-19T04:43:13;98802.00;;;17.00
10058;BMP180;5068;51.286;7.518;2023-09-19T04:44:47;98802.00;;;17.00
10058;BMP180;5068;51.286;7.518;2023-09-19T04:46:21;98805.00;;;16.90
10058;BMP180;5068;51.286;7.518;2023-09-19T04:47:54;98813.00;;;16.90
10058;BMP180;5068;51.286;7.518;2023-09-19T04:49:28;98811.00;;;16.80
10058;BMP180;5068;51.286;7.518;2023-09-19T04:51:01;98808.00;;;16.80
10058;BMP180;5068;51.286;7.518;2023-09-19T04:52:35;98809.00;;;16.80
10058;BMP180;5068;51.286;7.518;2023-09-19T04:54:08;98811.00;;;16.70
10058;BMP180;5068;51.286;7.518;2023-09-19T04:55:42;98815.00;;;16.70
10058;BMP180;5068;51.286;7.518;2023-09-19T04:57:15;98810.00;;;16.70
10058;BMP180;5068;51.286;7.518;2023-09-19T04:58:48;98814.00;;;16.60
10058;BMP180;5068;51.286;7.518;2023-09-19T05:00:21;98810.00;;;16.60
10058;BMP180;5068;51.286;7.518;2023-09-19T05:01:56;98806.00;;;16.60
10058;BMP180;5068;51.286;7.518;2023-09-19T05:03:28;98817.00;;;16.50
10058;BMP180;5068;51.286;7.518;2023-09-19T05:05:01;98811.00;;;16.50
10058;BMP180;5068;51.286;7.518;2023-09-19T05:06:34;98821.00;;;16.50
10058;BMP180;5068;51.286;7.518;2023-09-19T05:08:08;98811.00;;;16.50
10058;BMP180;5068;51.286;7.518;2023-09-19T05:09:41;98819.00;;;16.50
10058;BMP180;5068;51.286;7.518;2023-09-19T05:11:15;98819.00;;;16.40
10058;BMP180;5068;51.286;7.518;2023-09-19T05:12:52;98819.00;;;16.40
10058;BMP180;5068;51.286;7.518;2023-09-19T05:14:26;98820.00;;;16.40
10058;BMP180;5068;51.286;7.518;2023-09-19T05:16:00;98823.00;;;16.30
10058;BMP180;5068;51.286;7.518;2023-09-19T05:17:35;98818.00;;;16.30
10058;BMP180;5068;51.286;7.518;2023-09-19T05:19:08;98810.00;;;16.30
10058;BMP180;5068;51.286;7.518;2023-09-19T05:20:43;98818.00;;;16.30
10058;BMP180;5068;51.286;7.518;2023-09-19T05:22:16;98822.00;;;16.30
10058;BMP180;5068;51.286;7.518;2023-09-19T05:23:52;98820.00;;;16.30
10058;BMP180;5068;51.286;7.518;2023-09-19T05:25:24;98832.00;;;16.30
10058;BMP180;5068;51.286;7.518;2023-09-19T05:27:03;98832.00;;;16.30
10058;BMP180;5068;51.286;7.518;2023-09-19T05:28:36;98842.00;;;16.30
10058;BMP180;5068;51.286;7.518;2023-09-19T05:30:11;98852.00;;;16.30
10058;BMP180;5068;51.286;7.518;2023-09-19T05:31:46;98847.00;;;16.30
10058;BMP180;5068;51.286;7.518;2023-09-19T05:33:20;98841.00;;;16.30
10058;BMP180;5068;51.286;7.518;2023-09-19T05:34:52;98843.00;;;16.20
10058;BMP180;5068;51.286;7.518;2023-09-19T05:36:28;98852.00;;;16.20
10058;BMP180;5068;51.286;7.518;2023-09-19T05:38:02;98854.00;;;16.20
10058;BMP180;5068;51.286;7.518;2023-09-19T05:39:37;98851.00;;;16.20
10058;BMP180;5068;51.286;7.518;2023-09-19T05:41:09;98852.00;;;16.20
10058;BMP180;5068;51.286;7.518;2023-09-19T05:42:47;98857.00;;;16.20
10058;BMP180;5068;51.286;7.518;2023-09-19T05:44:19;98868.00;;;16.20
10058;BMP180;5068;51.286;7.518;2023-09-19T05:45:52;98874.00;;;16.20
10058;BMP180;5068;51.286;7.518;2023-09-19T05:47:28;98873.00;;;16.20
10058;BMP180;5068;51.286;7.518;2023-09-19T05:49:01;98875.00;;;16.20
10058;BMP180;5068;51.286;7.518;2023-09-19T05:50:35;98875.00;;;16.10
10058;BMP180;5068;51.286;7.518;2023-09-19T05:52:08;98867.00;;;16.10
10058;BMP180;5068;51.286;7.518;2023-09-19T05:53:41;98870.00;;;16.10
10058;BMP180;5068;51.286;7.518;2023-09-19T05:55:15;98865.00;;;16.10
10058;BMP180;5068;51.286;7.518;2023-09-19T05:56:48;98868.00;;;16.10
10058;BMP180;5068;51.286;7.518;2023-09-19T05:58:26;98878.00;;;16.10
10058;BMP180;5068;51.286;7.518;2023-09-19T05:59:58;98877.00;;;16.10
10058;BMP180;5068;51.286;7.518;2023-09-19T06:01:31;98887.00;;;16.10
10058;BMP180;5068;51.286;7.518;2023-09-19T06:03:04;98886.00;;;16.20
10058;BMP180;5068;51.286;7.518;2023-09-19T06:04:38;98891.00;;;16.20
10058;BMP180;5068;51.286;7.518;2023-09-19T06:06:12;98884.00;;;16.20
10058;BMP180;5068;51.286;7.518;2023-09-19T06:07:46;98888.00;;;16.20
10058;BMP180;5068;51.286;7.518;2023-09-19T06:09:19;98886.00;;;16.20
10058;BMP180;5068;51.286;7.518;2023-09-19T06:10:55;98901.00;;;16.20
10058;BMP180;5068;51.286;7.518;2023-09-19T06:12:28;98902.00;;;16.20
10058;BMP180;5068;51.286;7.518;2023-09-19T06:14:03;98912.00;;;16.30
10058;BMP180;5068;51.286;7.518;2023-09-19T06:15:36;98899.00;;;16.30
10058;BMP180;5068;51.286;7.518;2023-09-19T06:17:09;98898.00;;;16.30
10058;BMP180;5068;51.286;7.518;2023-09-19T06:18:42;98906.00;;;16.30
10058;BMP180;5068;51.286;7.518;2023-09-19T06:20:16;98909.00;;;16.30
10058;BMP180;5068;51.286;7.518;2023-09-19T06:21:49;98910.00;;;16.40
10058;BMP180;5068;51.286;7.518;2023-09-19T06:23:23;98909.00;;;16.40
10058;BMP180;5068;51.286;7.518;2023-09-19T06:24:56;98906.00;;;16.40
10058;BMP180;5068;51.286;7.518;2023-09-19T06:26:29;98913.00;;;16.40
10058;BMP180;5068;51.286;7.518;2023-09-19T06:28:03;98908.00;;;16.40
10058;BMP180;5068;51.286;7.518;2023-09-19T06:29:38;98915.00;;;16.50
10058;BMP180;5068;51.286;7.518;2023-09-19T06:31:11;98918.00;;;16.40
10058;BMP180;5068;51.286;7.518;2023-09-19T06:32:45;98914.00;;;16.50
10058;BMP180;5068;51.286;7.518;2023-09-19T06:34:18;98922.00;;;16.50
10058;BMP180;5068;51.286;7.518;2023-09-19T06:35:51;98910.00;;;16.50
10058;BMP180;5068;51.286;7.518;2023-09-19T06:37:29;98918.00;;;16.60
10058;BMP180;5068;51.286;7.518;2023-09-19T06:39:04;98910.00;;;16.60
10058;BMP180;5068;51.286;7.518;2023-09-19T06:40:38;98909.00;;;16.60
10058;BMP180;5068;51.286;7.518;2023-09-19T06:42:14;98914.00;;;16.70
10058;BMP180;5068;51.286;7.518;2023-09-19T06:43:52;98916.00;;;16.70
10058;BMP180;5068;51.286;7.518;2023-09-19T06:45:28;98914.00;;;16.70
10058;BMP180;5068;51.286;7.518;2023-09-19T06:47:00;98909.00;;;16.80
10058;BMP180;5068;51.286;7.518;2023-09-19T06:48:34;98918.00;;;16.80
10058;BMP180;5068;51.286;7.518;2023-09-19T06:50:07;98915.00;;;16.80
10058;BMP180;5068;51.286;7.518;2023-09-19T06:51:45;98919.00;;;16.80
10058;BMP180;5068;51.286;7.518;2023-09-19T06:53:20;98906.00;;;16.90
10058;BMP180;5068;51.286;7.518;2023-09-19T06:54:55;98910.00;;;16.90
10058;BMP180;5068;51.286;7.518;2023-09-19T06:56:29;98905.00;;;16.90
10058;BMP180;5068;51.286;7.518;2023-09-19T06:58:03;98913.00;;;17.00
10058;BMP180;5068;51.286;7.518;2023-09-19T06:59:38;98907.00;;;17.00
10058;BMP180;5068;51.286;7.518;2023-09-19T07:01:13;98899.00;;;17.00
10058;BMP180;5068;51.286;7.518;2023-09-19T07:02:54;98910.00;;;17.10
10058;BMP180;5068;51.286;7.518;2023-09-19T07:04:28;98911.00;;;17.10
10058;BMP180;5068;51.286;7.518;2023-09-19T07:06:01;98910.00;;;17.10
10058;BMP180;5068;51.286;7.518;2023-09-19T07:07:36;98906.00;;;17.20
10058;BMP180;5068;51.286;7.518;2023-09-19T07:09:09;98914.00;;;17.20
10058;BMP180;5068;51.286;7.518;2023-09-19T07:10:42;98905.00;;;17.20
10058;BMP180;5068;51.286;7.518;2023-09-19T07:12:20;98920.00;;;17.30
10058;BMP180;5068;51.286;7.518;2023-09-19T07:13:54;98920.00;;;17.30
10058;BMP180;5068;51.286;7.518;2023-09-19T07:15:28;98925.00;;;17.30
10058;BMP180;5068;51.286;7.518;2023-09-19T07:17:04;98922.00;;;17.30
10058;BMP180;5068;51.286;7.518;2023-09-19T07:18:37;98923.00;;;17.30
10058;BMP180;5068;51.286;7.518;2023-09-19T07:20:10;98922.00;;;17.30
10058;BMP180;5068;51.286;7.518;2023-09-19T07:21:48;98936.00;;;17.30
10058;BMP180;5068;51.286;7.518;2023-09-19T07:23:22;98934.00;;;17.30
10058;BMP180;5068;51.286;7.518;2023-09-19T07:24:55;98928.00;;;17.40
10058;BMP180;5068;51.286;7.518;2023-09-19T07:26:28;98921.00;;;17.40
10058;BMP180;5068;51.286;7.518;2023-09-19T07:28:01;98928.00;;;17.40
10058;BMP180;5068;51.286;7.518;2023-09-19T07:29:34;98925.00;;;17.50
10058;BMP180;5068;51.286;7.518;2023-09-19T07:31:07;98926.00;;;17.50
10058;BMP180;5068;51.286;7.518;2023-09-19T07:32:43;98924.00;;;17.50
10058;BMP180;5068;51.286;7.518;2023-09-19T07:34:16;98921.00;;;17.60
10058;BMP180;5068;51.286;7.518;2023-09-19T07:35:50;98915.00;;;17.60
10058;BMP180;5068;51.286;7.518;2023-09-19T07:37:23;98919.00;;;17.60
10058;BMP180;5068;51.286;7.518;2023-09-19T07:38:57;98918.00;;;17.60
10058;BMP180;5068;51.286;7.518;2023-09-19T07:40:51;98924.00;;;17.70
10058;BMP180;5068;51.286;7.518;2023-09-19T07:42:24;98931.00;;;17.70
10058;BMP180;5068;51.286;7.518;2023-09-19T07:43:58;98935.00;;;17.70
10058;BMP180;5068;51.286;7.518;2023-09-19T07:45:31;98932.00;;;17.80
10058;BMP180;5068;51.286;7.518;2023-09-19T07:47:05;98930.00;;;17.80
10058;BMP180;5068;51.286;7.518;2023-09-19T07:48:39;98939.00;;;17.80
10058;BMP180;5068;51.286;7.518;2023-09-19T07:50:13;98940.00;;;17.90
10058;BMP180;5068;51.286;7.518;2023-09-19T07:51:45;98939.00;;;17.90
10058;BMP180;5068;51.286;7.518;2023-09-19T07:53:19;98938.00;;;17.90
10058;BMP180;5068;51.286;7.518;2023-09-19T07:54:51;98940.00;;;18.00
10058;BMP180;5068;51.286;7.518;2023-09-19T07:56:25;98943.00;;;18.00
10058;BMP180;5068;51.286;7.518;2023-09-19T07:57:58;98934.00;;;18.00
10058;BMP180;5068;51.286;7.518;2023-09-19T07:59:31;98931.00;;;18.00
10058;BMP180;5068;51.286;7.518;2023-09-19T08:01:06;98939.00;;;18.10
10058;BMP180;5068;51.286;7.518;2023-09-19T08:02:40;98942.00;;;18.10
10058;BMP180;5068;51.286;7.518;2023-09-19T08:04:15;98938.00;;;18.10
10058;BMP180;5068;51.286;7.518;2023-09-19T08:05:49;98936.00;;;18.10
10058;BMP180;5068;51.286;7.518;2023-09-19T08:07:23;98928.00;;;18.20
10058;BMP180;5068;51.286;7.518;2023-09-19T08:08:56;98928.00;;;18.20
10058;BMP180;5068;51.286;7.518;2023-09-19T08:10:33;98937.00;;;18.20
10058;BMP180;5068;51.286;7.518;2023-09-19T08:12:08;98936.00;;;18.30
10058;BMP180;5068;51.286;7.518;2023-09-19T08:13:42;98929.00;;;18.30
10058;BMP180;5068;51.286;7.518;2023-09-19T08:15:19;98936.00;;;18.30
10058;BMP180;5068;51.286;7.518;2023-09-19T08:16:57;98943.00;;;18.30
10058;BMP180;5068;51.286;7.518;2023-09-19T08:18:34;98950.00;;;18.30
10058;BMP180;5068;51.286;7.518;2023-09-19T08:20:12;98936.00;;;18.30
10058;BMP180;5068;51.286;7.518;2023-09-19T08:21:51;98946.00;;;18.30
10058;BMP180;5068;51.286;7.518;2023-09-19T08:23:25;98948.00;;;18.40
10058;BMP180;5068;51.286;7.518;2023-09-19T08:25:00;98953.00;;;18.40
10058;BMP180;5068;51.286;7.518;2023-09-19T08:26:39;98950.00;;;18.40
10058;BMP180;5068;51.286;7.518;2023-09-19T08:28:13;98946.00;;;18.40
10058;BMP180;5068;51.286;7.518;2023-09-19T08:29:51;98951.00;;;18.40
10058;BMP180;5068;51.286;7.518;2023-09-19T08:31:24;98954.00;;;18.40
10058;BMP180;5068;51.286;7.518;2023-09-19T08:32:59;98954.00;;;18.40
10058;BMP180;5068;51.286;7.518;2023-09-19T08:34:49;98968.00;;;18.50
10058;BMP180;5068;51.286;7.518;2023-09-19T08:36:24;98962.00;;;18.50
10058;BMP180;5068;51.286;7.518;2023-09-19T08:37:56;98959.00;;;18.50
10058;BMP180;5068;51.286;7.518;2023-09-19T08:39:32;98956.00;;;18.50
10058;BMP180;5068;51.286;7.518;2023-09-19T08:41:09;98966.00;;;18.50
10058;BMP180;5068;51.286;7.518;2023-09-19T08:42:48;98968.00;;;18.50
10058;BMP180;5068;51.286;7.518;2023-09-19T08:44:22;98970.00;;;18.50
10058;BMP180;5068;51.286;7.518;2023-09-19T08:46:10;98966.00;;;18.50
10058;BMP180;5068;51.286;7.518;2023-09-19T08:47:54;98963.00;;;18.60
10058;BMP180;5068;51.286;7.518;2023-09-19T08:50:02;98966.00;;;18.60
10058;BMP180;5068;51.286;7.518;2023-09-19T08:51:43;98977.00;;;18.60
10058;BMP180;5068;51.286;7.518;2023-09-19T08:53:29;98970.00;;;18.60
10058;BMP180;5068;51.286;7.518;2023-09-19T08:55:07;98968.00;;;18.60
10058;BMP180;5068;51.286;7.518;2023-09-19T08:56:43;98979.00;;;18.60
10058;BMP180;5068;51.286;7.518;2023-09-19T08:58:18;98978.00;;;18.60
10058;BMP180;5068;51.286;7.518;2023-09-19T08:59:57;98972.00;;;18.70
10058;BMP180;5068;51.286;7.518;2023-09-19T09:01:33;98976.00;;;18.70
10058;BMP180;5068;51.286;7.518;2023-09-19T09:03:10;98976.00;;;18.70
10058;BMP180;5068;51.286;7.518;2023-09-19T09:04:45;98980.00;;;18.80
10058;BMP180;5068;51.286;7.518;2023-09-19T09:06:23;98978.00;;;18.80
10058;BMP180;5068;51.286;7.518;2023-09-19T09:08:02;98977.00;;;18.80
10058;BMP180;5068;51.286;7.518;2023-09-19T09:09:38;98978.00;;;18.80
10058;BMP180;5068;51.286;7.518;2023-09-19T09:11:15;98981.00;;;18.80
10058;BMP180;5068;51.286;7.518;2023-09-19T09:12:51;98974.00;;;18.80
10058;BMP180;5068;51.286;7.518;2023-09-19T09:14:25;98988.00;;;18.80
10058;BMP180;5068;51.286;7.518;2023-09-19T09:15:58;98983.00;;;18.90
10058;BMP180;5068;51.286;7.518;2023-09-19T09:17:31;98986.00;;;18.90
10058;BMP180;5068;51.286;7.518;2023-09-19T09:19:05;98983.00;;;19.00
10058;BMP180;5068;51.286;7.518;2023-09-19T09:20:39;98965.00;;;19.00